sensor_id;sensor_type;location;lat;lon;timestamp;pressure;altitude;pressure_sealevel;temperature;humidity
47374;BME280;33123;50.118;10.272;2023-03-05T00:00:41;97877.28;;;4.98;65.97
47374;BME280;33123;50.118;10.272;2023-03-05T00:03:08;97876.91;;;4.95;66.29
47374;BME280;33123;50.118;10.272;2023-03-05T00:05:34;97874.06;;;4.96;65.37
47374;BME280;33123;50.118;10.272;2023-03-05T00:08:01;97877.69;;;4.95;63.42
47374;BME280;33123;50.118;10.272;2023-03-05T00:10:28;97878.91;;;4.93;63.60
47374;BME280;33123;50.118;10.272;2023-03-05T00:12:56;97879.69;;;4.93;63.61
47374;BME280;33123;50.118;10.272;2023-03-05T00:15:22;97875.28;;;4.94;63.72
47374;BME280;33123;50.118;10.272;2023-03-05T00:17:49;97872.66;;;4.94;63.22
47374;BME280;33123;50.118;10.272;2023-03-05T00:20:16;97875.88;;;4.96;63.14
47374;BME280;33123;50.118;10.272;2023-03-05T00:22:43;97874.88;;;4.97;62.98
47374;BME280;33123;50.118;10.272;2023-03-05T00:25:09;97872.25;;;4.97;62.87
47374;BME280;33123;50.118;10.272;2023-03-05T00:27:36;97874.88;;;4.97;62.79
47374;BME280;33123;50.118;10.272;2023-03-05T00:30:05;97869.66;;;4.97;62.76
47374;BME280;33123;50.118;10.272;2023-03-05T00:32:32;97866.44;;;4.95;63.14
47374;BME280;33123;50.118;10.272;2023-03-05T00:35:00;97865.66;;;4.94;63.00
47374;BME280;33123;50.118;10.272;2023-03-05T00:37:27;97864.81;;;4.94;63.05
47374;BME280;33123;50.118;10.272;2023-03-05T00:39:53;97862.22;;;4.94;62.48
47374;BME280;33123;50.118;10.272;2023-03-05T00:42:20;97860.44;;;4.94;62.29
47374;BME280;33123;50.118;10.272;2023-03-05T00:44:47;97847.56;;;4.93;61.48
47374;BME280;33123;50.118;10.272;2023-03-05T00:47:15;97851.19;;;4.92;61.98
47374;BME280;33123;50.118;10.272;2023-03-05T00:49:42;97846.97;;;4.91;61.58
47374;BME280;33123;50.118;10.272;2023-03-05T00:52:09;97847.19;;;4.89;61.50
47374;BME280;33123;50.118;10.272;2023-03-05T00:54:35;97849.78;;;4.89;61.23
47374;BME280;33123;50.118;10.272;2023-03-05T00:57:02;97847.97;;;4.90;61.68
47374;BME280;33123;50.118;10.272;2023-03-05T00:59:30;97838.53;;;4.89;61.72
47374;BME280;33123;50.118;10.272;2023-03-05T01:01:56;97835.94;;;4.89;62.07
47374;BME280;33123;50.118;10.272;2023-03-05T01:04:24;97840.94;;;4.90;61.98
47374;BME280;33123;50.118;10.272;2023-03-05T01:06:51;97831.31;;;4.91;61.44
47374;BME280;33123;50.118;10.272;2023-03-05T01:09:18;97828.69;;;4.91;60.99
47374;BME280;33123;50.118;10.272;2023-03-05T01:11:45;97827.88;;;4.90;60.74
47374;BME280;33123;50.118;10.272;2023-03-05T01:14:12;97826.47;;;4.88;60.99
47374;BME280;33123;50.118;10.272;2023-03-05T01:16:39;97820.28;;;4.89;61.72
47374;BME280;33123;50.118;10.272;2023-03-05T01:19:05;97815.44;;;4.86;60.77
47374;BME280;33123;50.118;10.272;2023-03-05T01:21:34;97817.47;;;4.84;61.36
47374;BME280;33123;50.118;10.272;2023-03-05T01:24:02;97810.63;;;4.83;61.34
47374;BME280;33123;50.118;10.272;2023-03-05T01:26:29;97803.44;;;4.78;61.52
47374;BME280;33123;50.118;10.272;2023-03-05T01:28:55;97806.84;;;4.79;61.29
47374;BME280;33123;50.118;10.272;2023-03-05T01:31:22;97765.53;;;4.49;61.64
47374;BME280;33123;50.118;10.272;2023-03-05T01:33:50;97805.63;;;4.74;61.42
47374;BME280;33123;50.118;10.272;2023-03-05T01:36:17;97798.19;;;4.71;61.36
47374;BME280;33123;50.118;10.272;2023-03-05T01:38:46;97799.22;;;4.70;61.59
47374;BME280;33123;50.118;10.272;2023-03-05T01:41:14;97792.78;;;4.66;61.07
47374;BME280;33123;50.118;10.272;2023-03-05T01:43:42;97792.78;;;4.66;61.25
47374;BME280;33123;50.118;10.272;2023-03-05T01:46:25;97791.19;;;4.65;61.32
47374;BME280;33123;50.118;10.272;2023-03-05T01:48:55;97787.19;;;4.63;61.16
47374;BME280;33123;50.118;10.272;2023-03-05T01:51:26;97790.81;;;4.62;61.31
47374;BME280;33123;50.118;10.272;2023-03-05T01:53:56;97777.97;;;4.60;61.02
47374;BME280;33123;50.118;10.272;2023-03-05T01:56:25;97782.59;;;4.58;61.32
47374;BME280;33123;50.118;10.272;2023-03-05T01:58:53;97784.19;;;4.59;61.60
47374;BME280;33123;50.118;10.272;2023-03-05T02:01:29;97779.19;;;4.58;62.15
47374;BME280;33123;50.118;10.272;2023-03-05T02:03:56;97781.00;;;4.57;61.62
47374;BME280;33123;50.118;10.272;2023-03-05T02:06:23;97775.78;;;4.57;61.40
47374;BME280;33123;50.118;10.272;2023-03-05T02:08:49;97767.94;;;4.57;62.03
47374;BME280;33123;50.118;10.272;2023-03-05T02:11:17;97764.53;;;4.57;61.81
47374;BME280;33123;50.118;10.272;2023-03-05T02:13:45;97761.31;;;4.55;61.63
47374;BME280;33123;50.118;10.272;2023-03-05T02:16:12;97735.88;;;4.37;62.02
47374;BME280;33123;50.118;10.272;2023-03-05T02:18:38;97759.53;;;4.48;61.75
47374;BME280;33123;50.118;10.272;2023-03-05T02:21:07;97762.56;;;4.45;61.99
47374;BME280;33123;50.118;10.272;2023-03-05T02:23:35;97754.91;;;4.44;62.53
47374;BME280;33123;50.118;10.272;2023-03-05T02:26:03;97749.91;;;4.42;62.79
47374;BME280;33123;50.118;10.272;2023-03-05T02:28:32;97756.13;;;4.41;63.22
47374;BME280;33123;50.118;10.272;2023-03-05T02:31:06;97761.75;;;4.38;62.77
47374;BME280;33123;50.118;10.272;2023-03-05T02:33:33;97751.94;;;4.40;62.52
47374;BME280;33123;50.118;10.272;2023-03-05T02:36:00;97758.16;;;4.39;62.41
47374;BME280;33123;50.118;10.272;2023-03-05T02:38:28;97755.34;;;4.41;62.48
47374;BME280;33123;50.118;10.272;2023-03-05T02:40:55;97744.91;;;4.41;61.92
47374;BME280;33123;50.118;10.272;2023-03-05T02:43:21;97746.50;;;4.42;61.85
47374;BME280;33123;50.118;10.272;2023-03-05T02:45:48;97743.88;;;4.42;61.68
47374;BME280;33123;50.118;10.272;2023-03-05T02:48:15;97743.69;;;4.43;61.77
47374;BME280;33123;50.118;10.272;2023-03-05T02:50:41;97736.06;;;4.42;61.63
47374;BME280;33123;50.118;10.272;2023-03-05T02:53:09;97737.66;;;4.43;61.70
47374;BME280;33123;50.118;10.272;2023-03-05T02:55:37;97732.44;;;4.43;61.61
47374;BME280;33123;50.118;10.272;2023-03-05T02:58:03;97726.22;;;4.44;61.05
47374;BME280;33123;50.118;10.272;2023-03-05T03:00:30;97722.81;;;4.43;60.98
47374;BME280;33123;50.118;10.272;2023-03-05T03:02:56;97722.81;;;4.43;61.04
47374;BME280;33123;50.118;10.272;2023-03-05T03:05:23;97725.22;;;4.45;61.36
47374;BME280;33123;50.118;10.272;2023-03-05T03:07:50;97724.22;;;4.46;60.76
47374;BME280;33123;50.118;10.272;2023-03-05T03:10:16;97714.78;;;4.45;60.52
47374;BME280;33123;50.118;10.272;2023-03-05T03:12:44;97720.19;;;4.43;60.19
47374;BME280;33123;50.118;10.272;2023-03-05T03:15:12;97724.22;;;4.46;60.40
47374;BME280;33123;50.118;10.272;2023-03-05T03:17:39;97720.59;;;4.47;60.71
47374;BME280;33123;50.118;10.272;2023-03-05T03:20:08;97722.97;;;4.48;60.37
47374;BME280;33123;50.118;10.272;2023-03-05T03:22:36;97715.94;;;4.49;60.49
47374;BME280;33123;50.118;10.272;2023-03-05T03:25:03;97720.19;;;4.50;60.88
47374;BME280;33123;50.118;10.272;2023-03-05T03:27:30;97721.19;;;4.49;60.26
47374;BME280;33123;50.118;10.272;2023-03-05T03:29:58;97715.94;;;4.49;60.36
47374;BME280;33123;50.118;10.272;2023-03-05T03:32:27;97702.09;;;4.48;60.65
47374;BME280;33123;50.118;10.272;2023-03-05T03:34:53;97705.50;;;4.49;60.91
47374;BME280;33123;50.118;10.272;2023-03-05T03:37:20;97702.91;;;4.49;60.73
47374;BME280;33123;50.118;10.272;2023-03-05T03:39:46;97703.91;;;4.48;61.04
47374;BME280;33123;50.118;10.272;2023-03-05T03:42:16;97704.72;;;4.48;60.94
47374;BME280;33123;50.118;10.272;2023-03-05T03:44:42;97702.09;;;4.48;60.91
47374;BME280;33123;50.118;10.272;2023-03-05T03:47:10;97704.94;;;4.47;60.82
47374;BME280;33123;50.118;10.272;2023-03-05T03:49:37;97701.94;;;4.43;61.23
47374;BME280;33123;50.118;10.272;2023-03-05T03:52:04;97693.72;;;4.40;60.96
47374;BME280;33123;50.118;10.272;2023-03-05T03:54:31;97690.09;;;4.41;61.25
47374;BME280;33123;50.118;10.272;2023-03-05T03:56:58;97693.72;;;4.40;61.12
47374;BME280;33123;50.118;10.272;2023-03-05T03:59:24;97696.34;;;4.40;61.45
47374;BME280;33123;50.118;10.272;2023-03-05T04:01:51;97687.72;;;4.39;61.43
47374;BME280;33123;50.118;10.272;2023-03-05T04:04:19;97694.75;;;4.39;61.70
47374;BME280;33123;50.118;10.272;2023-03-05T04:06:45;97688.50;;;4.40;61.76
47374;BME280;33123;50.118;10.272;2023-03-05T04:09:12;97686.91;;;4.39;61.81
47374;BME280;33123;50.118;10.272;2023-03-05T04:11:39;97684.09;;;4.40;61.85
47374;BME280;33123;50.118;10.272;2023-03-05T04:14:05;97678.06;;;4.40;61.95
47374;BME280;33123;50.118;10.272;2023-03-05T04:16:32;97685.47;;;4.43;61.85
47374;BME280;33123;50.118;10.272;2023-03-05T04:18:58;97681.66;;;4.45;61.82
47374;BME280;33123;50.118;10.272;2023-03-05T04:21:26;97679.06;;;4.45;61.86
47374;BME280;33123;50.118;10.272;2023-03-05T04:23:53;97672.03;;;4.46;61.51
47374;BME280;33123;50.118;10.272;2023-03-05T04:26:20;97672.81;;;4.46;61.60
47374;BME280;33123;50.118;10.272;2023-03-05T04:28:47;97676.22;;;4.47;61.92
47374;BME280;33123;50.118;10.272;2023-03-05T04:31:13;97671.00;;;4.47;61.85
47374;BME280;33123;50.118;10.272;2023-03-05T04:33:41;97669.41;;;4.46;61.49
47374;BME280;33123;50.118;10.272;2023-03-05T04:36:08;97664.19;;;4.46;61.67
47374;BME280;33123;50.118;10.272;2023-03-05T04:38:36;97666.59;;;4.47;61.32
47374;BME280;33123;50.118;10.272;2023-03-05T04:41:03;97662.16;;;4.48;61.19
47374;BME280;33123;50.118;10.272;2023-03-05T04:43:29;97659.56;;;4.48;61.18
47374;BME280;33123;50.118;10.272;2023-03-05T04:45:56;97656.94;;;4.48;61.50
47374;BME280;33123;50.118;10.272;2023-03-05T04:48:22;97656.94;;;4.48;61.37
47374;BME280;33123;50.118;10.272;2023-03-05T04:50:49;97653.53;;;4.47;61.29
47374;BME280;33123;50.118;10.272;2023-03-05T04:53:16;97657.97;;;4.47;61.00
47374;BME280;33123;50.118;10.272;2023-03-05T04:55:44;97651.34;;;4.44;60.96
47374;BME280;33123;50.118;10.272;2023-03-05T04:58:10;97648.13;;;4.42;61.16
47374;BME280;33123;50.118;10.272;2023-03-05T05:00:37;97654.16;;;4.43;61.58
47374;BME280;33123;50.118;10.272;2023-03-05T05:03:04;97646.75;;;4.40;61.67
47374;BME280;33123;50.118;10.272;2023-03-05T05:05:30;97650.56;;;4.37;62.14
47374;BME280;33123;50.118;10.272;2023-03-05T05:07:57;97649.56;;;4.38;61.99
47374;BME280;33123;50.118;10.272;2023-03-05T05:10:24;97644.56;;;4.37;61.51
47374;BME280;33123;50.118;10.272;2023-03-05T05:12:52;97648.16;;;4.36;61.85
47374;BME280;33123;50.118;10.272;2023-03-05T05:15:19;97638.13;;;4.33;61.71
47374;BME280;33123;50.118;10.272;2023-03-05T05:17:46;97637.56;;;4.31;61.95
47374;BME280;33123;50.118;10.272;2023-03-05T05:20:14;97589.94;;;3.97;61.76
47374;BME280;33123;50.118;10.272;2023-03-05T05:22:41;97644.78;;;4.29;61.85
47374;BME280;33123;50.118;10.272;2023-03-05T05:25:09;97640.59;;;4.28;61.98
47374;BME280;33123;50.118;10.272;2023-03-05T05:27:36;97648.59;;;4.26;62.05
47374;BME280;33123;50.118;10.272;2023-03-05T05:30:05;97641.78;;;4.25;61.72
47374;BME280;33123;50.118;10.272;2023-03-05T05:32:32;97641.38;;;4.21;61.92
47374;BME280;33123;50.118;10.272;2023-03-05T05:34:59;97608.19;;;3.97;62.09
47374;BME280;33123;50.118;10.272;2023-03-05T05:37:26;97593.38;;;3.91;61.96
47374;BME280;33123;50.118;10.272;2023-03-05T05:39:53;97641.81;;;4.18;61.82
47374;BME280;33123;50.118;10.272;2023-03-05T05:42:21;97634.59;;;4.14;61.61
47374;BME280;33123;50.118;10.272;2023-03-05T05:44:48;97638.59;;;4.16;61.65
47374;BME280;33123;50.118;10.272;2023-03-05T05:47:17;97571.75;;;3.70;61.62
47374;BME280;33123;50.118;10.272;2023-03-05T05:49:44;97639.03;;;4.13;61.71
47374;BME280;33123;50.118;10.272;2023-03-05T05:52:11;97643.44;;;4.13;62.13
47374;BME280;33123;50.118;10.272;2023-03-05T05:54:38;97645.25;;;4.12;61.47
47374;BME280;33123;50.118;10.272;2023-03-05T05:57:05;97642.03;;;4.10;61.48
47374;BME280;33123;50.118;10.272;2023-03-05T05:59:31;97647.25;;;4.10;61.21
47374;BME280;33123;50.118;10.272;2023-03-05T06:01:58;97644.63;;;4.10;61.21
47374;BME280;33123;50.118;10.272;2023-03-05T06:04:26;97650.66;;;4.11;61.17
47374;BME280;33123;50.118;10.272;2023-03-05T06:06:53;97640.22;;;4.11;61.10
47374;BME280;33123;50.118;10.272;2023-03-05T06:09:19;97637.81;;;4.09;61.01
47374;BME280;33123;50.118;10.272;2023-03-05T06:11:46;97637.03;;;4.09;61.14
47374;BME280;33123;50.118;10.272;2023-03-05T06:14:13;97645.03;;;4.14;61.30
47374;BME280;33123;50.118;10.272;2023-03-05T06:16:40;97647.44;;;4.15;60.90
47374;BME280;33123;50.118;10.272;2023-03-05T06:19:08;97645.44;;;4.17;60.67
47374;BME280;33123;50.118;10.272;2023-03-05T06:21:38;97648.63;;;4.19;60.64
47374;BME280;33123;50.118;10.272;2023-03-05T06:24:05;97642.63;;;4.19;60.97
47374;BME280;33123;50.118;10.272;2023-03-05T06:26:32;97644.44;;;4.18;60.81
47374;BME280;33123;50.118;10.272;2023-03-05T06:28:59;97652.03;;;4.20;60.70
47374;BME280;33123;50.118;10.272;2023-03-05T06:31:27;97627.22;;;4.04;60.73
47374;BME280;33123;50.118;10.272;2023-03-05T06:33:55;97646.59;;;4.21;60.63
47374;BME280;33123;50.118;10.272;2023-03-05T06:36:24;97649.84;;;4.23;60.49
47374;BME280;33123;50.118;10.272;2023-03-05T06:38:53;97649.63;;;4.25;60.65
47374;BME280;33123;50.118;10.272;2023-03-05T06:41:21;97654.63;;;4.27;60.53
47374;BME280;33123;50.118;10.272;2023-03-05T06:43:48;97651.03;;;4.28;60.46
47374;BME280;33123;50.118;10.272;2023-03-05T06:46:17;97652.63;;;4.29;60.73
47374;BME280;33123;50.118;10.272;2023-03-05T06:48:44;97653.00;;;4.32;60.56
47374;BME280;33123;50.118;10.272;2023-03-05T06:51:14;97649.97;;;4.35;60.25
47374;BME280;33123;50.118;10.272;2023-03-05T06:53:41;97645.34;;;4.37;59.74
47374;BME280;33123;50.118;10.272;2023-03-05T06:56:09;97649.38;;;4.40;59.88
47374;BME280;33123;50.118;10.272;2023-03-05T06:58:38;97616.94;;;4.22;59.71
47374;BME280;33123;50.118;10.272;2023-03-05T07:01:05;97650.13;;;4.47;59.61
47374;BME280;33123;50.118;10.272;2023-03-05T07:03:32;97651.31;;;4.51;59.72
47374;BME280;33123;50.118;10.272;2023-03-05T07:06:01;97656.91;;;4.55;59.70
47374;BME280;33123;50.118;10.272;2023-03-05T07:08:28;97657.53;;;4.57;59.45
47374;BME280;33123;50.118;10.272;2023-03-05T07:10:54;97648.47;;;4.59;59.24
47374;BME280;33123;50.118;10.272;2023-03-05T07:13:23;97644.84;;;4.60;59.56
47374;BME280;33123;50.118;10.272;2023-03-05T07:15:50;97642.84;;;4.62;59.27
47374;BME280;33123;50.118;10.272;2023-03-05T07:18:16;97654.88;;;4.63;58.94
47374;BME280;33123;50.118;10.272;2023-03-05T07:20:43;97643.19;;;4.66;58.44
47374;BME280;33123;50.118;10.272;2023-03-05T07:23:10;97644.00;;;4.66;59.66
47374;BME280;33123;50.118;10.272;2023-03-05T07:25:37;97640.41;;;4.67;58.72
47374;BME280;33123;50.118;10.272;2023-03-05T07:28:05;97627.97;;;4.63;58.77
47374;BME280;33123;50.118;10.272;2023-03-05T07:30:33;97637.78;;;4.67;57.72
47374;BME280;33123;50.118;10.272;2023-03-05T07:33:00;97630.81;;;4.61;58.06
47374;BME280;33123;50.118;10.272;2023-03-05T07:35:27;97630.72;;;4.74;57.80
47374;BME280;33123;50.118;10.272;2023-03-05T07:37:53;97630.31;;;4.78;58.40
47374;BME280;33123;50.118;10.272;2023-03-05T07:40:21;97635.66;;;4.83;57.85
47374;BME280;33123;50.118;10.272;2023-03-05T07:42:48;97635.25;;;4.86;57.77
47374;BME280;33123;50.118;10.272;2023-03-05T07:45:14;97631.22;;;4.90;57.67
47374;BME280;33123;50.118;10.272;2023-03-05T07:47:42;97635.00;;;4.94;57.61
47374;BME280;33123;50.118;10.272;2023-03-05T07:50:10;97625.97;;;4.96;56.86
47374;BME280;33123;50.118;10.272;2023-03-05T07:52:36;97633.97;;;5.01;57.02
47374;BME280;33123;50.118;10.272;2023-03-05T07:55:04;97633.34;;;5.06;56.78
47374;BME280;33123;50.118;10.272;2023-03-05T07:57:30;97634.94;;;5.07;55.72
47374;BME280;33123;50.118;10.272;2023-03-05T07:59:57;97629.25;;;5.10;56.31
47374;BME280;33123;50.118;10.272;2023-03-05T08:02:23;97634.06;;;5.13;56.71
47374;BME280;33123;50.118;10.272;2023-03-05T08:04:51;97627.84;;;5.14;55.47
47374;BME280;33123;50.118;10.272;2023-03-05T08:07:18;97632.84;;;5.16;56.14
47374;BME280;33123;50.118;10.272;2023-03-05T08:09:44;97621.59;;;5.15;55.38
47374;BME280;33123;50.118;10.272;2023-03-05T08:12:11;97626.41;;;5.18;55.81
47374;BME280;33123;50.118;10.272;2023-03-05T08:14:38;97622.19;;;5.17;54.98
47374;BME280;33123;50.118;10.272;2023-03-05T08:17:05;97621.19;;;5.18;55.09
47374;BME280;33123;50.118;10.272;2023-03-05T08:19:32;97623.34;;;5.21;55.71
47374;BME280;33123;50.118;10.272;2023-03-05T08:22:00;97612.69;;;5.23;56.01
47374;BME280;33123;50.118;10.272;2023-03-05T08:24:27;97619.13;;;5.20;54.94
47374;BME280;33123;50.118;10.272;2023-03-05T08:26:55;97627.78;;;5.21;54.37
47374;BME280;33123;50.118;10.272;2023-03-05T08:29:22;97608.28;;;5.23;54.76
47374;BME280;33123;50.118;10.272;2023-03-05T08:31:49;97609.50;;;5.21;54.36
47374;BME280;33123;50.118;10.272;2023-03-05T08:34:18;97568.91;;;4.93;54.47
47374;BME280;33123;50.118;10.272;2023-03-05T08:36:44;97619.75;;;5.22;54.42
47374;BME280;33123;50.118;10.272;2023-03-05T08:39:13;97618.63;;;5.12;54.37
47374;BME280;33123;50.118;10.272;2023-03-05T08:41:39;97610.28;;;5.21;54.40
47374;BME280;33123;50.118;10.272;2023-03-05T08:44:06;97613.91;;;5.20;53.71
47374;BME280;33123;50.118;10.272;2023-03-05T08:46:33;97610.66;;;5.25;54.19
47374;BME280;33123;50.118;10.272;2023-03-05T08:49:01;97604.66;;;5.24;54.45
47374;BME280;33123;50.118;10.272;2023-03-05T08:51:27;97606.25;;;5.25;54.49
47374;BME280;33123;50.118;10.272;2023-03-05T08:53:56;97535.88;;;4.81;52.70
47374;BME280;33123;50.118;10.272;2023-03-05T08:56:25;97607.09;;;5.19;53.09
47374;BME280;33123;50.118;10.272;2023-03-05T08:58:55;97603.22;;;5.28;53.77
47374;BME280;33123;50.118;10.272;2023-03-05T09:01:21;97599.28;;;5.38;53.90
47374;BME280;33123;50.118;10.272;2023-03-05T09:03:49;97601.03;;;5.44;53.10
47374;BME280;33123;50.118;10.272;2023-03-05T09:06:15;97602.81;;;5.50;52.76
47374;BME280;33123;50.118;10.272;2023-03-05T09:08:42;97593.31;;;5.55;52.10
47374;BME280;33123;50.118;10.272;2023-03-05T09:11:10;97592.22;;;5.63;52.19
47374;BME280;33123;50.118;10.272;2023-03-05T09:13:39;97584.09;;;5.71;52.64
47374;BME280;33123;50.118;10.272;2023-03-05T09:16:07;97589.31;;;5.71;51.86
47374;BME280;33123;50.118;10.272;2023-03-05T09:18:36;97589.84;;;5.80;51.71
47374;BME280;33123;50.118;10.272;2023-03-05T09:21:05;97581.91;;;5.87;52.17
47374;BME280;33123;50.118;10.272;2023-03-05T09:23:32;97586.31;;;5.93;51.83
47374;BME280;33123;50.118;10.272;2023-03-05T09:25:59;97579.63;;;5.97;50.72
47374;BME280;33123;50.118;10.272;2023-03-05T09:28:26;97574.97;;;5.99;50.38
47374;BME280;33123;50.118;10.272;2023-03-05T09:30:54;97567.63;;;6.07;50.53
47374;BME280;33123;50.118;10.272;2023-03-05T09:33:21;97561.75;;;6.12;50.56
47374;BME280;33123;50.118;10.272;2023-03-05T09:35:48;97572.69;;;6.21;50.44
47374;BME280;33123;50.118;10.272;2023-03-05T09:38:14;97568.25;;;6.21;49.78
47374;BME280;33123;50.118;10.272;2023-03-05T09:40:48;97565.19;;;6.24;49.88
47374;BME280;33123;50.118;10.272;2023-03-05T09:43:25;97562.72;;;6.29;50.16
47374;BME280;33123;50.118;10.272;2023-03-05T09:46:15;97557.25;;;6.31;50.17
47374;BME280;33123;50.118;10.272;2023-03-05T09:48:59;97551.28;;;6.42;50.25
47374;BME280;33123;50.118;10.272;2023-03-05T09:51:33;97536.69;;;6.34;50.55
47374;BME280;33123;50.118;10.272;2023-03-05T09:54:04;97553.78;;;6.49;49.82
47374;BME280;33123;50.118;10.272;2023-03-05T09:56:35;97549.59;;;6.48;49.90
47374;BME280;33123;50.118;10.272;2023-03-05T09:59:09;97554.06;;;6.59;49.50
47374;BME280;33123;50.118;10.272;2023-03-05T10:01:43;97492.06;;;6.29;49.42
47374;BME280;33123;50.118;10.272;2023-03-05T10:04:12;97553.94;;;6.66;49.16
47374;BME280;33123;50.118;10.272;2023-03-05T10:06:44;97557.84;;;6.75;48.37
47374;BME280;33123;50.118;10.272;2023-03-05T10:09:13;97552.19;;;6.78;49.12
47374;BME280;33123;50.118;10.272;2023-03-05T10:11:47;97550.94;;;6.80;48.75
47374;BME280;33123;50.118;10.272;2023-03-05T10:14:18;97554.47;;;6.86;48.40
47374;BME280;33123;50.118;10.272;2023-03-05T10:17:20;97552.75;;;6.92;48.88
47374;BME280;33123;50.118;10.272;2023-03-05T10:20:02;97553.44;;;6.99;48.21
47374;BME280;33123;50.118;10.272;2023-03-05T10:22:32;97545.72;;;7.04;48.38
47374;BME280;33123;50.118;10.272;2023-03-05T10:25:17;97548.13;;;7.05;48.17
47374;BME280;33123;50.118;10.272;2023-03-05T10:27:49;97541.16;;;6.99;47.97
47374;BME280;33123;50.118;10.272;2023-03-05T10:30:24;97531.69;;;6.98;47.74
47374;BME280;33123;50.118;10.272;2023-03-05T10:33:05;97529.06;;;6.98;47.71
47374;BME280;33123;50.118;10.272;2023-03-05T10:36:05;97523.16;;;7.03;48.33
47374;BME280;33123;50.118;10.272;2023-03-05T10:39:00;97526.81;;;7.02;48.21
47374;BME280;33123;50.118;10.272;2023-03-05T10:41:39;97527.59;;;7.02;48.12
47374;BME280;33123;50.118;10.272;2023-03-05T10:44:13;97523.94;;;7.03;48.09
47374;BME280;33123;50.118;10.272;2023-03-05T10:46:41;97522.00;;;6.99;47.69
47374;BME280;33123;50.118;10.272;2023-03-05T10:49:16;97519.38;;;6.99;47.59
47374;BME280;33123;50.118;10.272;2023-03-05T10:51:49;97518.81;;;6.97;46.45
47374;BME280;33123;50.118;10.272;2023-03-05T10:54:21;97516.44;;;6.95;47.54
47374;BME280;33123;50.118;10.272;2023-03-05T10:56:49;97506.41;;;6.92;47.07
47374;BME280;33123;50.118;10.272;2023-03-05T10:59:16;97508.34;;;6.85;47.18
47374;BME280;33123;50.118;10.272;2023-03-05T11:02:00;97503.34;;;6.83;46.68
47374;BME280;33123;50.118;10.272;2023-03-05T11:04:33;97510.84;;;6.92;47.59
47374;BME280;33123;50.118;10.272;2023-03-05T11:07:05;97507.19;;;6.93;47.67
47374;BME280;33123;50.118;10.272;2023-03-05T11:09:32;97502.75;;;6.93;46.79
47374;BME280;33123;50.118;10.272;2023-03-05T11:12:09;97496.16;;;6.91;46.39
47374;BME280;33123;50.118;10.272;2023-03-05T11:14:38;97495.69;;;6.94;46.39
47374;BME280;33123;50.118;10.272;2023-03-05T11:17:24;97483.50;;;6.87;46.89
47374;BME280;33123;50.118;10.272;2023-03-05T11:19:54;97452.28;;;6.74;49.40
47374;BME280;33123;50.118;10.272;2023-03-05T11:22:22;97481.47;;;6.90;46.78
47374;BME280;33123;50.118;10.272;2023-03-05T11:25:12;97478.38;;;6.81;46.35
47374;BME280;33123;50.118;10.272;2023-03-05T11:27:45;97488.06;;;6.80;47.18
47374;BME280;33123;50.118;10.272;2023-03-05T11:30:19;97476.44;;;6.76;46.97
47374;BME280;33123;50.118;10.272;2023-03-05T11:32:46;97480.63;;;6.77;47.62
47374;BME280;33123;50.118;10.272;2023-03-05T11:35:29;97473.94;;;6.81;46.80
47374;BME280;33123;50.118;10.272;2023-03-05T11:38:00;97468.94;;;6.80;47.13
47374;BME280;33123;50.118;10.272;2023-03-05T11:40:29;97467.09;;;6.80;47.31
47374;BME280;33123;50.118;10.272;2023-03-05T11:42:58;97459.91;;;6.87;47.62
47374;BME280;33123;50.118;10.272;2023-03-05T11:45:28;97455.59;;;6.93;47.45
47374;BME280;33123;50.118;10.272;2023-03-05T11:47:59;97449.44;;;6.87;46.90
47374;BME280;33123;50.118;10.272;2023-03-05T11:50:31;97444.69;;;6.84;47.64
47374;BME280;33123;50.118;10.272;2023-03-05T11:53:02;97442.72;;;6.92;48.08
47374;BME280;33123;50.118;10.272;2023-03-05T11:55:33;97430.19;;;6.94;48.03
47374;BME280;33123;50.118;10.272;2023-03-05T11:58:11;97438.06;;;7.05;47.26
47374;BME280;33123;50.118;10.272;2023-03-05T12:00:44;97437.34;;;7.10;47.20
47374;BME280;33123;50.118;10.272;2023-03-05T12:03:14;97441.91;;;7.14;47.54
47374;BME280;33123;50.118;10.272;2023-03-05T12:05:45;97436.34;;;7.11;47.14
47374;BME280;33123;50.118;10.272;2023-03-05T12:08:17;97422.34;;;6.82;46.66
47374;BME280;33123;50.118;10.272;2023-03-05T12:10:45;97418.72;;;6.83;46.99
47374;BME280;33123;50.118;10.272;2023-03-05T12:13:18;97420.50;;;6.82;46.75
47374;BME280;33123;50.118;10.272;2023-03-05T12:16:02;97419.50;;;6.83;47.81
47374;BME280;33123;50.118;10.272;2023-03-05T12:18:44;97403.78;;;6.83;47.07
47374;BME280;33123;50.118;10.272;2023-03-05T12:21:22;97410.84;;;6.71;47.87
47374;BME280;33123;50.118;10.272;2023-03-05T12:23:52;97413.94;;;6.80;47.49
47374;BME280;33123;50.118;10.272;2023-03-05T12:26:53;97408.34;;;6.76;47.78
47374;BME280;33123;50.118;10.272;2023-03-05T12:29:28;97404.13;;;6.64;47.71
47374;BME280;33123;50.118;10.272;2023-03-05T12:31:55;97399.13;;;6.62;47.54
47374;BME280;33123;50.118;10.272;2023-03-05T12:34:50;97400.84;;;6.56;47.57
47374;BME280;33123;50.118;10.272;2023-03-05T12:37:56;97398.88;;;6.52;47.75
47374;BME280;33123;50.118;10.272;2023-03-05T12:40:24;97389.22;;;6.52;48.13
47374;BME280;33123;50.118;10.272;2023-03-05T12:42:53;97382.38;;;6.51;48.26
47374;BME280;33123;50.118;10.272;2023-03-05T12:45:34;97348.25;;;6.34;48.37
47374;BME280;33123;50.118;10.272;2023-03-05T12:48:33;97381.91;;;6.43;48.07
47374;BME280;33123;50.118;10.272;2023-03-05T12:51:13;97367.81;;;6.44;48.42
47374;BME280;33123;50.118;10.272;2023-03-05T12:53:55;97368.16;;;6.47;48.22
47374;BME280;33123;50.118;10.272;2023-03-05T12:56:25;97371.78;;;6.46;47.56
47374;BME280;33123;50.118;10.272;2023-03-05T12:58:57;97335.59;;;6.20;47.95
47374;BME280;33123;50.118;10.272;2023-03-05T13:01:35;97357.78;;;6.41;48.42
47374;BME280;33123;50.118;10.272;2023-03-05T13:04:10;97361.66;;;6.38;48.29
47374;BME280;33123;50.118;10.272;2023-03-05T13:06:39;97356.41;;;6.38;48.35
47374;BME280;33123;50.118;10.272;2023-03-05T13:09:16;97357.44;;;6.37;48.33
47374;BME280;33123;50.118;10.272;2023-03-05T13:11:45;97351.88;;;6.33;48.30